sensor_id;sensor_type;location;lat;lon;timestamp;P1;durP1;ratioP1;P2;durP2;ratioP2
16693;SDS011;39538;52.196;9.892;2022-12-10T00:01:03;43.80;;;20.00;;
16693;SDS011;39538;52.196;9.892;2022-12-10T00:03:30;43.07;;;20.00;;
16693;SDS011;39538;52.196;9.892;2022-12-10T00:05:59;39.70;;;18.07;;
16693;SDS011;39538;52.196;9.892;2022-12-10T00:08:26;40.63;;;20.20;;
16693;SDS011;39538;52.196;9.892;2022-12-10T00:10:53;50.83;;;18.53;;
16693;SDS011;39538;52.196;9.892;2022-12-10T00:13:20;34.50;;;19.33;;
16693;SDS011;39538;52.196;9.892;2022-12-10T00:15:47;44.90;;;19.77;;
16693;SDS011;39538;52.196;9.892;2022-12-10T00:18:13;40.37;;;17.20;;
16693;SDS011;39538;52.196;9.892;2022-12-10T00:20:40;39.93;;;17.33;;
16693;SDS011;39538;52.196;9.892;2022-12-10T00:23:06;33.50;;;16.43;;
16693;SDS011;39538;52.196;9.892;2022-12-10T00:25:33;29.37;;;15.07;;
16693;SDS011;39538;52.196;9.892;2022-12-10T00:28:01;33.93;;;16.07;;
16693;SDS011;39538;52.196;9.892;2022-12-10T00:30:28;38.87;;;17.80;;
16693;SDS011;39538;52.196;9.892;2022-12-10T00:32:55;42.47;;;19.03;;
16693;SDS011;39538;52.196;9.892;2022-12-10T00:35:21;38.53;;;20.83;;
16693;SDS011;39538;52.196;9.892;2022-12-10T00:37:48;36.17;;;17.03;;
16693;SDS011;39538;52.196;9.892;2022-12-10T00:40:14;42.93;;;17.83;;
16693;SDS011;39538;52.196;9.892;2022-12-10T00:42:41;35.07;;;16.10;;
16693;SDS011;39538;52.196;9.892;2022-12-10T00:45:09;30.57;;;16.73;;
16693;SDS011;39538;52.196;9.892;2022-12-10T00:47:36;24.70;;;14.73;;
16693;SDS011;39538;52.196;9.892;2022-12-10T00:50:03;33.10;;;16.93;;
16693;SDS011;39538;52.196;9.892;2022-12-10T00:52:30;34.97;;;16.67;;
16693;SDS011;39538;52.196;9.892;2022-12-10T00:54:56;34.97;;;17.27;;
16693;SDS011;39538;52.196;9.892;2022-12-10T00:57:23;26.33;;;14.40;;
16693;SDS011;39538;52.196;9.892;2022-12-10T00:59:49;27.03;;;15.83;;
16693;SDS011;39538;52.196;9.892;2022-12-10T01:02:17;36.07;;;18.33;;
16693;SDS011;39538;52.196;9.892;2022-12-10T01:04:43;37.20;;;15.63;;
16693;SDS011;39538;52.196;9.892;2022-12-10T01:07:10;27.67;;;15.83;;
16693;SDS011;39538;52.196;9.892;2022-12-10T01:09:36;31.80;;;16.53;;
16693;SDS011;39538;52.196;9.892;2022-12-10T01:12:03;37.83;;;17.53;;
16693;SDS011;39538;52.196;9.892;2022-12-10T01:14:31;25.03;;;15.63;;
16693;SDS011;39538;52.196;9.892;2022-12-10T01:16:59;38.83;;;17.43;;
16693;SDS011;39538;52.196;9.892;2022-12-10T01:19:30;42.67;;;16.50;;
16693;SDS011;39538;52.196;9.892;2022-12-10T01:21:57;38.10;;;18.43;;
16693;SDS011;39538;52.196;9.892;2022-12-10T01:24:24;35.20;;;18.83;;
16693;SDS011;39538;52.196;9.892;2022-12-10T01:26:52;41.53;;;16.93;;
16693;SDS011;39538;52.196;9.892;2022-12-10T01:29:19;37.00;;;17.03;;
16693;SDS011;39538;52.196;9.892;2022-12-10T01:31:47;29.53;;;14.80;;
16693;SDS011;39538;52.196;9.892;2022-12-10T01:34:17;27.07;;;13.53;;
16693;SDS011;39538;52.196;9.892;2022-12-10T01:36:45;36.97;;;18.07;;
16693;SDS011;39538;52.196;9.892;2022-12-10T01:39:15;36.20;;;17.50;;
16693;SDS011;39538;52.196;9.892;2022-12-10T01:41:43;36.30;;;16.80;;
16693;SDS011;39538;52.196;9.892;2022-12-10T01:47:15;37.20;;;18.33;;
16693;SDS011;39538;52.196;9.892;2022-12-10T01:49:42;27.23;;;16.53;;
16693;SDS011;39538;52.196;9.892;2022-12-10T01:52:11;40.53;;;18.10;;
16693;SDS011;39538;52.196;9.892;2022-12-10T01:54:38;41.63;;;18.70;;
16693;SDS011;39538;52.196;9.892;2022-12-10T01:57:08;36.20;;;17.90;;
16693;SDS011;39538;52.196;9.892;2022-12-10T01:59:37;37.83;;;17.60;;
16693;SDS011;39538;52.196;9.892;2022-12-10T02:02:07;42.03;;;19.67;;
16693;SDS011;39538;52.196;9.892;2022-12-10T02:04:39;31.67;;;17.40;;
16693;SDS011;39538;52.196;9.892;2022-12-10T02:07:16;29.03;;;17.53;;
16693;SDS011;39538;52.196;9.892;2022-12-10T02:09:50;27.67;;;14.27;;
16693;SDS011;39538;52.196;9.892;2022-12-10T02:12:21;33.30;;;16.70;;
16693;SDS011;39538;52.196;9.892;2022-12-10T02:14:55;35.60;;;18.20;;
16693;SDS011;39538;52.196;9.892;2022-12-10T02:17:25;19.40;;;11.73;;
16693;SDS011;39538;52.196;9.892;2022-12-10T02:20:04;30.70;;;16.30;;
16693;SDS011;39538;52.196;9.892;2022-12-10T02:22:36;38.73;;;15.67;;
16693;SDS011;39538;52.196;9.892;2022-12-10T02:25:06;41.37;;;17.27;;
16693;SDS011;39538;52.196;9.892;2022-12-10T02:27:35;34.37;;;17.57;;
16693;SDS011;39538;52.196;9.892;2022-12-10T02:30:12;47.73;;;17.70;;
16693;SDS011;39538;52.196;9.892;2022-12-10T02:32:39;36.00;;;19.77;;
16693;SDS011;39538;52.196;9.892;2022-12-10T02:35:09;37.00;;;17.37;;
16693;SDS011;39538;52.196;9.892;2022-12-10T02:37:40;31.57;;;14.57;;
16693;SDS011;39538;52.196;9.892;2022-12-10T02:40:13;36.33;;;16.37;;
16693;SDS011;39538;52.196;9.892;2022-12-10T02:42:44;40.47;;;18.93;;
16693;SDS011;39538;52.196;9.892;2022-12-10T02:45:15;34.27;;;16.60;;
16693;SDS011;39538;52.196;9.892;2022-12-10T02:47:43;33.80;;;18.33;;
16693;SDS011;39538;52.196;9.892;2022-12-10T02:50:10;32.70;;;18.50;;
16693;SDS011;39538;52.196;9.892;2022-12-10T02:52:40;40.17;;;17.17;;
16693;SDS011;39538;52.196;9.892;2022-12-10T02:55:08;35.93;;;19.17;;
16693;SDS011;39538;52.196;9.892;2022-12-10T02:57:38;30.83;;;17.13;;
16693;SDS011;39538;52.196;9.892;2022-12-10T03:00:13;35.63;;;17.10;;
16693;SDS011;39538;52.196;9.892;2022-12-10T03:02:51;30.43;;;19.03;;
16693;SDS011;39538;52.196;9.892;2022-12-10T03:05:27;34.03;;;16.80;;
16693;SDS011;39538;52.196;9.892;2022-12-10T03:08:03;37.30;;;17.90;;
16693;SDS011;39538;52.196;9.892;2022-12-10T03:10:36;39.87;;;16.77;;
16693;SDS011;39538;52.196;9.892;2022-12-10T03:13:07;36.23;;;18.57;;
16693;SDS011;39538;52.196;9.892;2022-12-10T03:15:39;46.67;;;18.63;;
16693;SDS011;39538;52.196;9.892;2022-12-10T03:18:08;36.83;;;18.43;;
16693;SDS011;39538;52.196;9.892;2022-12-10T03:20:38;39.93;;;19.30;;
16693;SDS011;39538;52.196;9.892;2022-12-10T03:23:09;41.10;;;16.50;;
16693;SDS011;39538;52.196;9.892;2022-12-10T03:25:39;32.10;;;18.27;;
16693;SDS011;39538;52.196;9.892;2022-12-10T03:28:07;42.53;;;18.30;;
16693;SDS011;39538;52.196;9.892;2022-12-10T03:30:34;26.13;;;18.03;;
16693;SDS011;39538;52.196;9.892;2022-12-10T03:33:05;36.37;;;16.27;;
16693;SDS011;39538;52.196;9.892;2022-12-10T03:35:32;31.00;;;13.93;;
16693;SDS011;39538;52.196;9.892;2022-12-10T03:37:59;37.57;;;17.93;;
16693;SDS011;39538;52.196;9.892;2022-12-10T03:40:26;37.77;;;17.17;;
16693;SDS011;39538;52.196;9.892;2022-12-10T03:42:53;26.10;;;14.77;;
16693;SDS011;39538;52.196;9.892;2022-12-10T03:45:20;34.07;;;16.13;;
16693;SDS011;39538;52.196;9.892;2022-12-10T03:47:46;32.60;;;16.43;;
16693;SDS011;39538;52.196;9.892;2022-12-10T03:50:15;25.17;;;14.23;;
16693;SDS011;39538;52.196;9.892;2022-12-10T03:52:42;27.83;;;15.73;;
16693;SDS011;39538;52.196;9.892;2022-12-10T03:55:08;40.13;;;16.43;;
16693;SDS011;39538;52.196;9.892;2022-12-10T03:57:35;29.60;;;16.03;;
16693;SDS011;39538;52.196;9.892;2022-12-10T04:00:02;32.60;;;16.83;;
16693;SDS011;39538;52.196;9.892;2022-12-10T04:02:29;26.03;;;15.33;;
16693;SDS011;39538;52.196;9.892;2022-12-10T04:04:56;34.43;;;16.07;;
16693;SDS011;39538;52.196;9.892;2022-12-10T04:07:24;40.47;;;18.37;;
16693;SDS011;39538;52.196;9.892;2022-12-10T04:09:50;35.20;;;14.97;;
16693;SDS011;39538;52.196;9.892;2022-12-10T04:12:17;33.30;;;14.80;;
16693;SDS011;39538;52.196;9.892;2022-12-10T04:14:43;35.77;;;14.33;;
16693;SDS011;39538;52.196;9.892;2022-12-10T04:17:27;27.27;;;15.73;;
16693;SDS011;39538;52.196;9.892;2022-12-10T04:19:54;30.37;;;16.40;;
16693;SDS011;39538;52.196;9.892;2022-12-10T04:22:20;23.70;;;14.47;;
16693;SDS011;39538;52.196;9.892;2022-12-10T04:25:06;23.03;;;11.17;;
16693;SDS011;39538;52.196;9.892;2022-12-10T04:27:48;22.77;;;14.17;;
16693;SDS011;39538;52.196;9.892;2022-12-10T04:30:14;32.37;;;13.97;;
16693;SDS011;39538;52.196;9.892;2022-12-10T04:32:41;28.00;;;15.53;;
16693;SDS011;39538;52.196;9.892;2022-12-10T04:35:08;27.07;;;13.43;;
16693;SDS011;39538;52.196;9.892;2022-12-10T04:37:35;28.13;;;14.10;;
16693;SDS011;39538;52.196;9.892;2022-12-10T04:40:01;23.00;;;13.87;;
16693;SDS011;39538;52.196;9.892;2022-12-10T04:42:29;27.20;;;15.17;;
16693;SDS011;39538;52.196;9.892;2022-12-10T04:44:56;25.23;;;11.10;;
16693;SDS011;39538;52.196;9.892;2022-12-10T04:47:22;23.40;;;13.43;;
16693;SDS011;39538;52.196;9.892;2022-12-10T04:49:49;24.10;;;14.90;;
16693;SDS011;39538;52.196;9.892;2022-12-10T04:52:16;23.67;;;15.33;;
16693;SDS011;39538;52.196;9.892;2022-12-10T04:54:43;30.60;;;14.53;;
16693;SDS011;39538;52.196;9.892;2022-12-10T04:57:10;25.60;;;14.57;;
16693;SDS011;39538;52.196;9.892;2022-12-10T04:59:38;32.97;;;13.97;;
16693;SDS011;39538;52.196;9.892;2022-12-10T05:02:05;29.77;;;12.90;;
16693;SDS011;39538;52.196;9.892;2022-12-10T05:04:32;26.97;;;14.00;;
16693;SDS011;39538;52.196;9.892;2022-12-10T05:06:58;23.07;;;12.43;;
16693;SDS011;39538;52.196;9.892;2022-12-10T05:09:25;31.33;;;13.57;;
16693;SDS011;39538;52.196;9.892;2022-12-10T05:11:51;37.97;;;14.93;;
16693;SDS011;39538;52.196;9.892;2022-12-10T05:14:18;26.10;;;12.80;;
16693;SDS011;39538;52.196;9.892;2022-12-10T05:16:48;37.40;;;14.80;;
16693;SDS011;39538;52.196;9.892;2022-12-10T05:19:15;22.90;;;15.13;;
16693;SDS011;39538;52.196;9.892;2022-12-10T05:21:44;26.13;;;16.20;;
16693;SDS011;39538;52.196;9.892;2022-12-10T05:24:28;27.40;;;12.90;;
16693;SDS011;39538;52.196;9.892;2022-12-10T05:26:56;28.70;;;15.63;;
16693;SDS011;39538;52.196;9.892;2022-12-10T05:29:22;34.03;;;16.07;;
16693;SDS011;39538;52.196;9.892;2022-12-10T05:31:50;24.20;;;15.40;;
16693;SDS011;39538;52.196;9.892;2022-12-10T05:34:17;26.40;;;13.57;;
16693;SDS011;39538;52.196;9.892;2022-12-10T05:36:43;30.57;;;16.60;;
16693;SDS011;39538;52.196;9.892;2022-12-10T05:39:10;28.13;;;13.67;;
16693;SDS011;39538;52.196;9.892;2022-12-10T05:41:38;24.67;;;13.50;;
16693;SDS011;39538;52.196;9.892;2022-12-10T05:44:05;20.43;;;10.93;;
16693;SDS011;39538;52.196;9.892;2022-12-10T05:46:33;17.47;;;12.10;;
16693;SDS011;39538;52.196;9.892;2022-12-10T05:49:02;33.70;;;15.93;;
16693;SDS011;39538;52.196;9.892;2022-12-10T05:51:30;26.50;;;11.67;;
16693;SDS011;39538;52.196;9.892;2022-12-10T05:53:58;29.80;;;13.90;;
16693;SDS011;39538;52.196;9.892;2022-12-10T05:56:26;25.57;;;10.40;;
16693;SDS011;39538;52.196;9.892;2022-12-10T05:58:54;21.40;;;12.27;;
16693;SDS011;39538;52.196;9.892;2022-12-10T06:01:23;25.40;;;13.23;;
16693;SDS011;39538;52.196;9.892;2022-12-10T06:03:51;23.60;;;11.93;;
16693;SDS011;39538;52.196;9.892;2022-12-10T06:06:21;22.27;;;12.87;;
16693;SDS011;39538;52.196;9.892;2022-12-10T06:08:48;27.27;;;11.33;;
16693;SDS011;39538;52.196;9.892;2022-12-10T06:11:15;31.87;;;13.57;;
16693;SDS011;39538;52.196;9.892;2022-12-10T06:13:42;21.20;;;10.87;;
16693;SDS011;39538;52.196;9.892;2022-12-10T06:16:09;27.30;;;13.00;;
16693;SDS011;39538;52.196;9.892;2022-12-10T06:18:37;27.20;;;12.60;;
16693;SDS011;39538;52.196;9.892;2022-12-10T06:21:04;25.50;;;10.03;;
16693;SDS011;39538;52.196;9.892;2022-12-10T06:23:33;19.00;;;11.87;;
16693;SDS011;39538;52.196;9.892;2022-12-10T06:26:02;18.70;;;11.33;;
16693;SDS011;39538;52.196;9.892;2022-12-10T06:28:29;15.97;;;9.83;;
16693;SDS011;39538;52.196;9.892;2022-12-10T06:30:57;21.03;;;12.23;;
16693;SDS011;39538;52.196;9.892;2022-12-10T06:33:23;28.00;;;10.70;;
16693;SDS011;39538;52.196;9.892;2022-12-10T06:35:50;22.13;;;10.77;;
16693;SDS011;39538;52.196;9.892;2022-12-10T06:38:17;25.40;;;12.53;;
16693;SDS011;39538;52.196;9.892;2022-12-10T06:40:44;20.43;;;12.17;;
16693;SDS011;39538;52.196;9.892;2022-12-10T06:43:11;22.13;;;10.73;;
16693;SDS011;39538;52.196;9.892;2022-12-10T06:45:38;26.23;;;15.80;;
16693;SDS011;39538;52.196;9.892;2022-12-10T06:48:05;24.47;;;13.13;;
16693;SDS011;39538;52.196;9.892;2022-12-10T06:50:31;26.07;;;14.57;;
16693;SDS011;39538;52.196;9.892;2022-12-10T06:52:58;20.43;;;11.50;;
16693;SDS011;39538;52.196;9.892;2022-12-10T06:55:24;25.53;;;14.07;;
16693;SDS011;39538;52.196;9.892;2022-12-10T06:57:52;34.77;;;13.17;;
16693;SDS011;39538;52.196;9.892;2022-12-10T07:00:20;24.40;;;12.00;;
16693;SDS011;39538;52.196;9.892;2022-12-10T07:02:46;18.90;;;10.70;;
16693;SDS011;39538;52.196;9.892;2022-12-10T07:05:13;20.27;;;11.73;;
16693;SDS011;39538;52.196;9.892;2022-12-10T07:07:40;15.53;;;11.30;;
16693;SDS011;39538;52.196;9.892;2022-12-10T07:10:07;20.10;;;10.57;;
16693;SDS011;39538;52.196;9.892;2022-12-10T07:12:35;17.80;;;10.03;;
16693;SDS011;39538;52.196;9.892;2022-12-10T07:15:03;31.67;;;14.30;;
16693;SDS011;39538;52.196;9.892;2022-12-10T07:17:30;16.13;;;10.93;;
16693;SDS011;39538;52.196;9.892;2022-12-10T07:19:57;29.07;;;12.50;;
16693;SDS011;39538;52.196;9.892;2022-12-10T07:22:23;21.57;;;11.37;;
16693;SDS011;39538;52.196;9.892;2022-12-10T07:24:50;23.17;;;12.90;;
16693;SDS011;39538;52.196;9.892;2022-12-10T07:27:16;18.73;;;12.40;;
16693;SDS011;39538;52.196;9.892;2022-12-10T07:29:43;17.77;;;12.40;;
16693;SDS011;39538;52.196;9.892;2022-12-10T07:32:11;24.03;;;11.27;;
16693;SDS011;39538;52.196;9.892;2022-12-10T07:34:38;27.73;;;14.67;;
16693;SDS011;39538;52.196;9.892;2022-12-10T07:37:04;28.40;;;14.97;;
16693;SDS011;39538;52.196;9.892;2022-12-10T07:39:31;23.60;;;12.53;;
16693;SDS011;39538;52.196;9.892;2022-12-10T07:41:58;25.80;;;12.53;;
16693;SDS011;39538;52.196;9.892;2022-12-10T07:44:25;18.70;;;12.17;;
16693;SDS011;39538;52.196;9.892;2022-12-10T07:46:53;23.37;;;12.33;;
16693;SDS011;39538;52.196;9.892;2022-12-10T07:49:21;17.47;;;9.37;;
16693;SDS011;39538;52.196;9.892;2022-12-10T07:51:49;18.73;;;8.93;;
16693;SDS011;39538;52.196;9.892;2022-12-10T07:54:16;18.17;;;12.47;;
16693;SDS011;39538;52.196;9.892;2022-12-10T07:56:43;20.10;;;11.00;;
16693;SDS011;39538;52.196;9.892;2022-12-10T07:59:10;14.97;;;9.50;;
16693;SDS011;39538;52.196;9.892;2022-12-10T08:01:37;14.63;;;8.97;;
16693;SDS011;39538;52.196;9.892;2022-12-10T08:04:04;16.20;;;9.10;;
16693;SDS011;39538;52.196;9.892;2022-12-10T08:06:32;22.83;;;13.07;;
16693;SDS011;39538;52.196;9.892;2022-12-10T08:08:58;15.40;;;11.30;;
16693;SDS011;39538;52.196;9.892;2022-12-10T08:11:26;20.60;;;12.67;;
16693;SDS011;39538;52.196;9.892;2022-12-10T08:13:53;16.13;;;9.93;;
16693;SDS011;39538;52.196;9.892;2022-12-10T08:16:21;18.40;;;9.47;;
16693;SDS011;39538;52.196;9.892;2022-12-10T08:18:50;21.27;;;10.53;;
16693;SDS011;39538;52.196;9.892;2022-12-10T08:21:17;16.63;;;10.13;;
16693;SDS011;39538;52.196;9.892;2022-12-10T08:23:46;15.47;;;9.77;;
16693;SDS011;39538;52.196;9.892;2022-12-10T08:26:14;26.67;;;9.83;;
16693;SDS011;39538;52.196;9.892;2022-12-10T08:28:42;19.33;;;9.73;;
16693;SDS011;39538;52.196;9.892;2022-12-10T08:31:09;19.20;;;10.30;;
16693;SDS011;39538;52.196;9.892;2022-12-10T08:33:37;23.10;;;10.27;;
16693;SDS011;39538;52.196;9.892;2022-12-10T08:36:05;19.10;;;10.17;;
16693;SDS011;39538;52.196;9.892;2022-12-10T08:38:33;17.90;;;8.90;;
16693;SDS011;39538;52.196;9.892;2022-12-10T08:41:06;23.77;;;10.77;;
16693;SDS011;39538;52.196;9.892;2022-12-10T08:43:33;17.03;;;11.63;;
16693;SDS011;39538;52.196;9.892;2022-12-10T08:46:00;30.40;;;10.30;;
16693;SDS011;39538;52.196;9.892;2022-12-10T08:48:27;23.43;;;12.43;;
16693;SDS011;39538;52.196;9.892;2022-12-10T08:50:54;17.90;;;12.27;;
16693;SDS011;39538;52.196;9.892;2022-12-10T08:53:20;13.47;;;9.33;;
16693;SDS011;39538;52.196;9.892;2022-12-10T08:55:48;19.27;;;10.80;;
16693;SDS011;39538;52.196;9.892;2022-12-10T08:58:18;19.97;;;12.30;;
16693;SDS011;39538;52.196;9.892;2022-12-10T09:00:44;23.63;;;12.53;;
16693;SDS011;39538;52.196;9.892;2022-12-10T09:03:11;23.73;;;10.47;;
16693;SDS011;39538;52.196;9.892;2022-12-10T09:05:38;31.73;;;12.70;;
16693;SDS011;39538;52.196;9.892;2022-12-10T09:08:05;29.07;;;10.90;;
16693;SDS011;39538;52.196;9.892;2022-12-10T09:10:31;27.00;;;13.90;;
16693;SDS011;39538;52.196;9.892;2022-12-10T09:12:58;19.67;;;12.10;;
16693;SDS011;39538;52.196;9.892;2022-12-10T09:15:26;19.90;;;11.90;;
16693;SDS011;39538;52.196;9.892;2022-12-10T09:17:52;18.73;;;11.60;;
16693;SDS011;39538;52.196;9.892;2022-12-10T09:20:19;22.10;;;12.90;;
16693;SDS011;39538;52.196;9.892;2022-12-10T09:22:45;20.93;;;12.57;;
16693;SDS011;39538;52.196;9.892;2022-12-10T09:25:12;28.20;;;13.10;;
16693;SDS011;39538;52.196;9.892;2022-12-10T09:27:40;25.40;;;12.73;;
16693;SDS011;39538;52.196;9.892;2022-12-10T09:30:07;24.60;;;11.40;;
16693;SDS011;39538;52.196;9.892;2022-12-10T09:32:36;20.77;;;12.77;;
16693;SDS011;39538;52.196;9.892;2022-12-10T09:35:02;17.37;;;11.80;;
16693;SDS011;39538;52.196;9.892;2022-12-10T09:37:30;18.60;;;11.60;;
16693;SDS011;39538;52.196;9.892;2022-12-10T09:39:57;24.67;;;14.07;;
16693;SDS011;39538;52.196;9.892;2022-12-10T09:42:26;25.87;;;12.37;;
16693;SDS011;39538;52.196;9.892;2022-12-10T09:45:05;27.60;;;12.17;;
16693;SDS011;39538;52.196;9.892;2022-12-10T09:47:44;26.60;;;12.60;;
16693;SDS011;39538;52.196;9.892;2022-12-10T09:50:19;22.60;;;11.00;;
16693;SDS011;39538;52.196;9.892;2022-12-10T09:52:51;27.47;;;12.77;;
16693;SDS011;39538;52.196;9.892;2022-12-10T09:55:20;25.33;;;14.63;;
16693;SDS011;39538;52.196;9.892;2022-12-10T09:57:54;20.90;;;12.50;;
16693;SDS011;39538;52.196;9.892;2022-12-10T10:00:21;28.87;;;14.53;;
16693;SDS011;39538;52.196;9.892;2022-12-10T10:02:55;32.57;;;14.17;;
16693;SDS011;39538;52.196;9.892;2022-12-10T10:05:24;18.87;;;10.53;;
16693;SDS011;39538;52.196;9.892;2022-12-10T10:07:54;37.60;;;14.93;;
16693;SDS011;39538;52.196;9.892;2022-12-10T10:10:24;30.80;;;12.47;;
16693;SDS011;39538;52.196;9.892;2022-12-10T10:12:54;22.13;;;11.13;;
16693;SDS011;39538;52.196;9.892;2022-12-10T10:15:24;18.23;;;14.00;;
16693;SDS011;39538;52.196;9.892;2022-12-10T10:17:57;26.67;;;13.37;;
16693;SDS011;39538;52.196;9.892;2022-12-10T10:20:26;25.53;;;13.33;;
16693;SDS011;39538;52.196;9.892;2022-12-10T10:22:52;27.63;;;14.37;;
16693;SDS011;39538;52.196;9.892;2022-12-10T10:25:22;26.40;;;13.10;;
16693;SDS011;39538;52.196;9.892;2022-12-10T10:27:48;33.67;;;17.07;;
16693;SDS011;39538;52.196;9.892;2022-12-10T10:30:16;22.10;;;14.23;;
16693;SDS011;39538;52.196;9.892;2022-12-10T10:32:48;31.63;;;16.33;;
16693;SDS011;39538;52.196;9.892;2022-12-10T10:35:22;20.03;;;13.33;;
16693;SDS011;39538;52.196;9.892;2022-12-10T10:37:51;21.40;;;11.73;;
16693;SDS011;39538;52.196;9.892;2022-12-10T10:40:23;27.80;;;12.27;;
16693;SDS011;39538;52.196;9.892;2022-12-10T10:42:54;31.83;;;14.77;;
16693;SDS011;39538;52.196;9.892;2022-12-10T10:45:33;33.47;;;16.47;;
16693;SDS011;39538;52.196;9.892;2022-12-10T10:48:06;23.60;;;15.00;;
16693;SDS011;39538;52.196;9.892;2022-12-10T10:50:38;33.20;;;14.97;;
16693;SDS011;39538;52.196;9.892;2022-12-10T10:53:29;27.97;;;12.73;;
16693;SDS011;39538;52.196;9.892;2022-12-10T10:56:04;26.63;;;13.23;;
16693;SDS011;39538;52.196;9.892;2022-12-10T10:58:34;29.43;;;13.03;;
16693;SDS011;39538;52.196;9.892;2022-12-10T11:01:03;39.53;;;18.33;;
16693;SDS011;39538;52.196;9.892;2022-12-10T11:03:32;30.93;;;15.97;;
16693;SDS011;39538;52.196;9.892;2022-12-10T11:06:04;38.03;;;16.57;;
16693;SDS011;39538;52.196;9.892;2022-12-10T11:08:33;32.47;;;16.70;;
16693;SDS011;39538;52.196;9.892;2022-12-10T11:11:04;28.33;;;15.30;;
16693;SDS011;39538;52.196;9.892;2022-12-10T11:13:33;28.63;;;14.20;;
16693;SDS011;39538;52.196;9.892;2022-12-10T11:16:02;27.70;;;17.07;;
16693;SDS011;39538;52.196;9.892;2022-12-10T11:18:37;30.20;;;17.43;;
16693;SDS011;39538;52.196;9.892;2022-12-10T11:21:15;45.28;;;23.00;;
16693;SDS011;39538;52.196;9.892;2022-12-10T11:23:44;29.40;;;14.73;;
16693;SDS011;39538;52.196;9.892;2022-12-10T11:26:18;31.80;;;14.87;;
16693;SDS011;39538;52.196;9.892;2022-12-10T11:29:02;29.43;;;16.73;;
16693;SDS011;39538;52.196;9.892;2022-12-10T11:31:39;24.90;;;16.80;;
16693;SDS011;39538;52.196;9.892;2022-12-10T11:34:18;29.03;;;14.50;;
16693;SDS011;39538;52.196;9.892;2022-12-10T11:36:57;22.17;;;13.57;;
16693;SDS011;39538;52.196;9.892;2022-12-10T11:39:44;30.03;;;14.67;;
16693;SDS011;39538;52.196;9.892;2022-12-10T11:42:31;32.87;;;15.43;;
16693;SDS011;39538;52.196;9.892;2022-12-10T11:45:07;26.33;;;14.77;;
16693;SDS011;39538;52.196;9.892;2022-12-10T11:47:44;25.30;;;12.90;;
16693;SDS011;39538;52.196;9.892;2022-12-10T11:50:20;24.00;;;13.27;;
16693;SDS011;39538;52.196;9.892;2022-12-10T11:53:05;29.97;;;15.60;;
16693;SDS011;39538;52.196;9.892;2022-12-10T11:55:51;27.43;;;13.50;;
16693;SDS011;39538;52.196;9.892;2022-12-10T12:01:30;27.90;;;14.73;;
16693;SDS011;39538;52.196;9.892;2022-12-10T12:07:14;26.03;;;13.83;;
16693;SDS011;39538;52.196;9.892;2022-12-10T12:09:59;27.43;;;14.67;;
16693;SDS011;39538;52.196;9.892;2022-12-10T12:12:39;23.57;;;13.03;;
16693;SDS011;39538;52.196;9.892;2022-12-10T12:15:16;20.40;;;14.10;;
16693;SDS011;39538;52.196;9.892;2022-12-10T12:17:46;25.67;;;14.03;;
16693;SDS011;39538;52.196;9.892;2022-12-10T12:20:17;26.67;;;14.40;;
16693;SDS011;39538;52.196;9.892;2022-12-10T12:22:48;31.80;;;15.40;;
16693;SDS011;39538;52.196;9.892;2022-12-10T12:25:22;25.67;;;14.90;;
16693;SDS011;39538;52.196;9.892;2022-12-10T12:27:53;26.43;;;14.47;;
16693;SDS011;39538;52.196;9.892;2022-12-10T12:30:24;23.90;;;14.83;;
16693;SDS011;39538;52.196;9.892;2022-12-10T12:32:53;26.47;;;14.77;;
16693;SDS011;39538;52.196;9.892;2022-12-10T12:35:22;27.30;;;14.23;;
16693;SDS011;39538;52.196;9.892;2022-12-10T12:37:59;28.13;;;15.13;;
16693;SDS011;39538;52.196;9.892;2022-12-10T12:40:33;21.13;;;13.23;;
16693;SDS011;39538;52.196;9.892;2022-12-10T12:43:07;27.50;;;14.47;;
16693;SDS011;39538;52.196;9.892;2022-12-10T12:45:39;20.03;;;15.77;;
16693;SDS011;39538;52.196;9.892;2022-12-10T12:48:14;21.07;;;14.20;;
16693;SDS011;39538;52.196;9.892;2022-12-10T12:50:47;18.70;;;13.27;;
16693;SDS011;39538;52.196;9.892;2022-12-10T12:53:17;17.43;;;11.83;;
16693;SDS011;39538;52.196;9.892;2022-12-10T12:55:50;21.30;;;14.60;;
16693;SDS011;39538;52.196;9.892;2022-12-10T12:58:26;19.13;;;12.83;;
16693;SDS011;39538;52.196;9.892;2022-12-10T13:01:00;19.50;;;13.00;;
16693;SDS011;39538;52.196;9.892;2022-12-10T13:03:38;17.60;;;12.73;;
16693;SDS011;39538;52.196;9.892;2022-12-10T13:06:18;20.30;;;13.07;;
16693;SDS011;39538;52.196;9.892;2022-12-10T13:08:47;14.17;;;12.70;;
16693;SDS011;39538;52.196;9.892;2022-12-10T13:11:18;21.10;;;11.87;;
16693;SDS011;39538;52.196;9.892;2022-12-10T13:14:03;16.13;;;12.00;;
16693;SDS011;39538;52.196;9.892;2022-12-10T13:16:46;17.17;;;11.27;;
16693;SDS011;39538;52.196;9.892;2022-12-10T13:19:16;15.93;;;11.20;;
16693;SDS011;39538;52.196;9.892;2022-12-10T13:21:58;21.93;;;13.10;;
16693;SDS011;39538;52.196;9.892;2022-12-10T13:24:43;16.27;;;11.87;;
16693;SDS011;39538;52.196;9.892;2022-12-10T13:27:17;17.70;;;12.67;;
16693;SDS011;39538;52.196;9.892;2022-12-10T13:29:51;12.37;;;10.53;;
16693;SDS011;39538;52.196;9.892;2022-12-10T13:32:22;23.07;;;13.13;;
16693;SDS011;39538;52.196;9.892;2022-12-10T13:37:54;20.70;;;14.27;;
16693;SDS011;39538;52.196;9.892;2022-12-10T13:40:24;21.47;;;11.30;;
16693;SDS011;39538;52.196;9.892;2022-12-10T13:42:57;17.20;;;12.33;;
16693;SDS011;39538;52.196;9.892;2022-12-10T13:48:48;19.93;;;13.47;;
16693;SDS011;39538;52.196;9.892;2022-12-10T13:54:22;16.33;;;13.43;;
16693;SDS011;39538;52.196;9.892;2022-12-10T13:57:04;24.27;;;12.73;;
16693;SDS011;39538;52.196;9.892;2022-12-10T13:59:42;22.27;;;14.07;;
16693;SDS011;39538;52.196;9.892;2022-12-10T14:02:28;21.83;;;13.53;;
16693;SDS011;39538;52.196;9.892;2022-12-10T14:05:23;18.67;;;12.17;;
16693;SDS011;39538;52.196;9.892;2022-12-10T14:07:59;16.97;;;14.90;;
16693;SDS011;39538;52.196;9.892;2022-12-10T14:10:29;22.47;;;15.27;;
16693;SDS011;39538;52.196;9.892;2022-12-10T14:12:58;17.67;;;13.83;;
16693;SDS011;39538;52.196;9.892;2022-12-10T14:15:28;23.20;;;17.90;;
16693;SDS011;39538;52.196;9.892;2022-12-10T14:17:58;21.47;;;15.93;;
16693;SDS011;39538;52.196;9.892;2022-12-10T14:20:28;19.70;;;15.50;;
16693;SDS011;39538;52.196;9.892;2022-12-10T14:22:57;20.63;;;14.43;;
16693;SDS011;39538;52.196;9.892;2022-12-10T14:25:43;21.43;;;13.60;;
16693;SDS011;39538;52.196;9.892;2022-12-10T14:28:12;18.13;;;14.67;;
16693;SDS011;39538;52.196;9.892;2022-12-10T14:30:43;24.23;;;15.83;;
16693;SDS011;39538;52.196;9.892;2022-12-10T14:33:12;23.30;;;14.07;;
16693;SDS011;39538;52.196;9.892;2022-12-10T14:35:47;19.37;;;14.07;;
16693;SDS011;39538;52.196;9.892;2022-12-10T14:38:17;27.03;;;14.73;;
16693;SDS011;39538;52.196;9.892;2022-12-10T14:40:46;22.63;;;14.57;;
16693;SDS011;39538;52.196;9.892;2022-12-10T14:43:14;25.03;;;15.53;;
16693;SDS011;39538;52.196;9.892;2022-12-10T14:45:45;22.57;;;13.97;;
16693;SDS011;39538;52.196;9.892;2022-12-10T14:48:16;21.83;;;13.80;;
16693;SDS011;39538;52.196;9.892;2022-12-10T14:50:44;19.77;;;14.23;;
16693;SDS011;39538;52.196;9.892;2022-12-10T14:53:13;26.53;;;16.10;;
16693;SDS011;39538;52.196;9.892;2022-12-10T14:55:41;21.80;;;13.60;;